createdAt,value
2023-10-23T00:02:17.665Z,1.33
2023-10-23T00:04:45.090Z,1.48
2023-10-23T00:07:12.429Z,1.38
2023-10-23T00:09:39.749Z,1.40
2023-10-23T00:12:09.104Z,1.40
2023-10-23T00:14:36.724Z,1.50
2023-10-23T00:17:06.299Z,1.50
2023-10-23T00:19:33.676Z,1.88
2023-10-23T00:22:01.128Z,1.40
2023-10-23T00:24:28.674Z,1.48
2023-10-23T00:26:55.971Z,1.40
2023-10-23T00:29:23.187Z,1.60
2023-10-23T00:31:50.409Z,1.50
2023-10-23T00:34:19.091Z,1.55
2023-10-23T00:36:46.378Z,1.38
2023-10-23T00:39:13.242Z,1.52
2023-10-23T00:41:40.524Z,1.73
2023-10-23T00:44:07.623Z,1.33
2023-10-23T00:46:34.899Z,1.50
2023-10-23T00:49:02.449Z,1.50
2023-10-23T00:51:29.966Z,1.50
2023-10-23T00:53:57.457Z,1.50
2023-10-23T00:56:25.010Z,1.63
2023-10-23T00:58:51.884Z,1.33
2023-10-23T01:01:19.187Z,1.50
2023-10-23T01:03:46.103Z,1.58
2023-10-23T01:06:16.915Z,1.45
2023-10-23T01:08:44.669Z,1.40
2023-10-23T01:11:11.990Z,1.80
2023-10-23T01:13:39.845Z,1.60
2023-10-23T01:16:08.426Z,1.42
2023-10-23T01:18:35.738Z,1.70
2023-10-23T01:21:03.003Z,1.25
2023-10-23T01:23:35.902Z,1.48
2023-10-23T01:26:03.196Z,1.70
2023-10-23T01:28:30.401Z,1.50
2023-10-23T01:30:57.641Z,1.35
2023-10-23T01:33:25.042Z,1.42
2023-10-23T01:35:52.276Z,1.50
2023-10-23T01:38:22.256Z,1.35
2023-10-23T01:40:49.042Z,1.45
2023-10-23T01:43:17.006Z,1.67
2023-10-23T01:45:46.533Z,1.42
2023-10-23T01:48:13.830Z,1.50
2023-10-23T01:50:41.836Z,1.45
2023-10-23T01:53:09.256Z,1.40
2023-10-23T01:55:36.798Z,1.80
2023-10-23T01:58:05.046Z,1.70
2023-10-23T02:00:32.480Z,1.38
2023-10-23T02:03:00.549Z,1.50
2023-10-23T02:05:27.804Z,1.48
2023-10-23T02:07:54.953Z,1.55
2023-10-23T02:10:21.748Z,1.40
2023-10-23T02:12:48.554Z,1.38
2023-10-23T02:15:15.487Z,1.52
2023-10-23T02:17:42.710Z,1.50
2023-10-23T02:20:10.297Z,1.52
2023-10-23T02:22:37.818Z,1.65
2023-10-23T02:25:05.309Z,1.40
2023-10-23T02:27:34.094Z,1.60
2023-10-23T02:30:00.858Z,1.63
2023-10-23T02:32:28.389Z,1.50
2023-10-23T02:34:56.409Z,1.40
2023-10-23T02:37:25.410Z,1.50
2023-10-23T02:39:53.167Z,1.48
2023-10-23T02:42:23.215Z,1.50
2023-10-23T02:44:50.420Z,1.60
2023-10-23T02:47:18.118Z,1.52
2023-10-23T02:49:45.374Z,1.60
2023-10-23T02:52:13.592Z,1.30
2023-10-23T02:54:40.428Z,1.58
2023-10-23T02:57:09.377Z,1.40
2023-10-23T02:59:36.291Z,1.50
2023-10-23T03:02:03.224Z,1.45
2023-10-23T03:04:30.687Z,1.25
2023-10-23T03:06:58.099Z,1.45
2023-10-23T03:09:25.376Z,1.40
2023-10-23T03:11:52.824Z,1.50
2023-10-23T03:14:19.622Z,1.30
2023-10-23T03:16:46.516Z,1.50
2023-10-23T03:19:13.686Z,1.20
2023-10-23T03:21:40.938Z,1.42
2023-10-23T03:24:08.402Z,1.35
2023-10-23T03:26:35.691Z,1.52
2023-10-23T03:29:04.544Z,1.55
2023-10-23T03:31:34.292Z,1.33
2023-10-23T03:34:01.731Z,1.48
2023-10-23T03:36:29.231Z,1.40
2023-10-23T03:38:56.344Z,1.52
2023-10-23T03:41:23.241Z,1.33
2023-10-23T03:43:51.589Z,1.33
2023-10-23T03:46:19.394Z,1.40
2023-10-23T03:48:46.732Z,1.33
2023-10-23T03:51:13.718Z,1.30
2023-10-23T03:53:40.978Z,1.73
2023-10-23T03:56:08.315Z,1.50
2023-10-23T03:58:36.220Z,1.42
2023-10-23T04:01:04.096Z,1.40
2023-10-23T04:03:31.522Z,1.60
2023-10-23T04:05:58.625Z,1.40
2023-10-23T04:08:25.961Z,1.42
2023-10-23T04:10:53.250Z,1.35
2023-10-23T04:13:20.461Z,1.50
2023-10-23T04:15:54.781Z,1.40
2023-10-23T04:18:22.266Z,1.65
2023-10-23T04:20:49.516Z,1.52
2023-10-23T04:23:16.866Z,1.27
2023-10-23T04:25:43.879Z,1.70
2023-10-23T04:28:11.076Z,1.38
2023-10-23T04:30:38.476Z,1.40
2023-10-23T04:33:05.758Z,1.50
2023-10-23T04:35:33.490Z,1.30
2023-10-23T04:38:00.764Z,1.40
2023-10-23T04:40:28.023Z,1.30
2023-10-23T04:42:54.847Z,1.25
2023-10-23T04:45:22.168Z,1.25
2023-10-23T04:47:49.094Z,1.40
2023-10-23T04:50:18.393Z,1.38
2023-10-23T04:52:45.177Z,1.27
2023-10-23T04:55:12.520Z,1.40
2023-10-23T04:57:39.434Z,1.48
2023-10-23T05:00:08.738Z,1.48
2023-10-23T05:02:36.014Z,1.23
2023-10-23T05:05:03.744Z,1.33
2023-10-23T05:07:31.280Z,1.38
2023-10-23T05:10:05.324Z,1.20
2023-10-23T05:12:32.336Z,1.50
2023-10-23T05:14:59.551Z,1.40
2023-10-23T05:17:26.855Z,1.40
2023-10-23T05:19:54.052Z,1.58
2023-10-23T05:22:21.238Z,1.27
2023-10-23T05:24:49.066Z,1.48
2023-10-23T05:27:18.556Z,1.60
2023-10-23T05:29:46.060Z,1.23
2023-10-23T05:32:13.677Z,1.30
2023-10-23T05:34:40.992Z,1.27
2023-10-23T05:37:08.431Z,1.30
2023-10-23T05:39:35.911Z,1.25
2023-10-23T05:42:03.418Z,1.23
2023-10-23T05:44:33.278Z,1.40
2023-10-23T05:46:59.985Z,1.30
2023-10-23T05:49:27.216Z,1.35
2023-10-23T05:51:54.482Z,1.40
2023-10-23T05:54:21.695Z,1.20
2023-10-23T05:56:48.438Z,1.10
2023-10-23T05:59:15.223Z,1.20
2023-10-23T06:01:42.381Z,1.50
2023-10-23T06:04:09.714Z,1.30
2023-10-23T06:06:37.080Z,1.30
2023-10-23T06:09:05.463Z,1.40
2023-10-23T06:11:32.703Z,1.20
2023-10-23T06:13:59.954Z,1.40
2023-10-23T06:16:27.302Z,1.40
2023-10-23T06:18:54.142Z,1.55
2023-10-23T06:21:21.388Z,1.52
2023-10-23T06:23:48.730Z,1.50
2023-10-23T06:26:16.049Z,1.42
2023-10-23T06:28:42.988Z,1.30
2023-10-23T06:31:11.172Z,1.20
2023-10-23T06:33:40.495Z,1.50
2023-10-23T06:36:09.037Z,1.40
2023-10-23T06:38:36.655Z,1.35
2023-10-23T06:41:06.055Z,1.67
2023-10-23T06:43:33.915Z,1.40
2023-10-23T06:46:02.654Z,1.60
2023-10-23T06:48:31.110Z,1.40
2023-10-23T06:50:58.351Z,1.38
2023-10-23T06:53:25.679Z,1.27
2023-10-23T06:55:54.209Z,1.30
2023-10-23T06:58:23.880Z,1.50
2023-10-23T07:00:51.421Z,1.50
2023-10-23T07:03:18.903Z,1.50
2023-10-23T07:05:45.939Z,1.35
2023-10-23T07:08:14.550Z,1.20
2023-10-23T07:10:41.803Z,1.52
2023-10-23T07:13:22.355Z,1.20
2023-10-23T07:15:51.217Z,1.50
2023-10-23T07:18:18.767Z,1.48
2023-10-23T07:21:01.204Z,1.60
2023-10-23T07:23:35.931Z,1.23
2023-10-23T07:26:15.555Z,1.33
2023-10-23T07:28:42.604Z,1.30
2023-10-23T07:31:10.884Z,1.33
2023-10-23T07:33:38.195Z,1.42
2023-10-23T07:36:06.565Z,1.30
2023-10-23T07:38:34.048Z,1.55
2023-10-23T07:41:01.663Z,1.42
2023-10-23T07:43:29.654Z,1.45
2023-10-23T07:46:08.134Z,1.50
2023-10-23T07:51:09.783Z,1.10
2023-10-23T07:53:36.661Z,1.50
2023-10-23T07:56:07.212Z,1.42
2023-10-23T07:58:34.661Z,1.50
2023-10-23T08:01:06.302Z,1.40
2023-10-23T08:03:35.180Z,1.50
2023-10-23T08:06:06.738Z,1.40
2023-10-23T08:08:35.716Z,1.30
2023-10-23T08:11:06.968Z,1.58
2023-10-23T08:13:36.563Z,1.40
2023-10-23T08:16:07.218Z,1.30
2023-10-23T08:18:40.680Z,1.42
2023-10-23T08:21:10.621Z,1.33
2023-10-23T08:23:37.975Z,1.27
2023-10-23T08:26:05.273Z,1.30
2023-10-23T08:28:49.425Z,1.60
2023-10-23T08:31:34.967Z,1.45
2023-10-23T08:34:06.102Z,1.33
2023-10-23T08:36:34.090Z,1.40
2023-10-23T08:39:02.458Z,1.48
2023-10-23T08:41:29.971Z,1.50
2023-10-23T08:43:57.381Z,1.40
2023-10-23T08:46:33.919Z,1.52
2023-10-23T08:49:02.335Z,1.40
2023-10-23T08:51:30.211Z,1.55
2023-10-23T08:54:11.016Z,1.50
2023-10-23T08:56:40.416Z,1.40
2023-10-23T08:59:14.052Z,1.40
2023-10-23T09:01:42.091Z,1.60
2023-10-23T09:04:11.969Z,1.42
2023-10-23T09:09:07.428Z,2.00
2023-10-23T09:11:49.416Z,1.63
2023-10-23T09:14:29.947Z,1.73
2023-10-23T09:16:58.790Z,1.48
2023-10-23T09:19:39.103Z,1.92
2023-10-23T09:22:11.331Z,1.75
2023-10-23T09:24:42.090Z,1.60
2023-10-23T09:27:09.615Z,2.20
2023-10-23T09:29:36.794Z,1.83
2023-10-23T09:32:06.749Z,2.03
2023-10-23T09:34:34.662Z,2.00
2023-10-23T09:37:05.029Z,2.40
2023-10-23T09:39:32.962Z,2.78
2023-10-23T09:42:00.847Z,2.67
2023-10-23T09:44:28.070Z,2.80
2023-10-23T09:46:55.578Z,3.17
2023-10-23T09:49:24.416Z,3.15
2023-10-23T09:51:52.633Z,3.40
2023-10-23T09:54:23.708Z,3.47
2023-10-23T09:56:54.731Z,3.25
2023-10-23T09:59:35.171Z,3.20
2023-10-23T10:02:02.966Z,3.47
2023-10-23T10:04:30.848Z,3.28
2023-10-23T10:07:10.579Z,3.40
2023-10-23T10:09:40.540Z,3.70
2023-10-23T10:12:08.360Z,3.70
2023-10-23T10:14:36.130Z,3.33
2023-10-23T10:17:08.312Z,3.42
2023-10-23T10:19:36.919Z,3.55
2023-10-23T10:22:10.609Z,4.07
2023-10-23T10:24:38.729Z,3.75
2023-10-23T10:27:10.164Z,3.60
2023-10-23T10:29:37.463Z,3.47
2023-10-23T10:32:11.631Z,3.35
2023-10-23T10:34:55.723Z,3.40
2023-10-23T10:37:29.905Z,3.47
2023-10-23T10:39:57.268Z,3.53
2023-10-23T10:42:32.137Z,3.50
2023-10-23T10:45:00.547Z,3.72
2023-10-23T10:47:39.777Z,3.40
2023-10-23T10:50:07.278Z,3.70
2023-10-23T10:52:35.315Z,3.60
2023-10-23T10:55:03.047Z,3.45
2023-10-23T10:57:31.229Z,3.70
2023-10-23T11:00:02.821Z,3.70
2023-10-23T11:02:31.663Z,3.65
2023-10-23T11:05:01.829Z,3.65
2023-10-23T11:07:29.744Z,3.55
2023-10-23T11:09:56.951Z,3.92
2023-10-23T11:12:25.533Z,3.63
2023-10-23T11:14:52.302Z,3.75
2023-10-23T11:17:19.543Z,4.05
2023-10-23T11:19:46.377Z,3.78
2023-10-23T11:22:14.414Z,3.58
2023-10-23T11:24:42.196Z,3.53
2023-10-23T11:27:09.703Z,3.42
2023-10-23T11:29:44.547Z,3.30
2023-10-23T11:32:15.638Z,3.55
2023-10-23T11:34:43.837Z,3.70
2023-10-23T11:37:11.864Z,3.35
2023-10-23T11:39:40.111Z,3.63
2023-10-23T11:42:07.883Z,3.20
2023-10-23T11:44:38.283Z,3.47
2023-10-23T11:47:08.057Z,3.60
2023-10-23T11:49:35.466Z,3.35
2023-10-23T11:52:04.576Z,3.30
2023-10-23T11:54:34.806Z,3.80
2023-10-23T11:57:01.670Z,3.10
2023-10-23T11:59:30.189Z,3.20
2023-10-23T12:01:57.899Z,3.35
2023-10-23T12:04:25.881Z,3.50
2023-10-23T12:06:53.294Z,3.05
2023-10-23T12:09:20.585Z,3.55
2023-10-23T12:11:47.878Z,3.22
2023-10-23T12:14:15.117Z,3.03
2023-10-23T12:16:42.404Z,3.53
2023-10-23T12:19:10.884Z,3.03
2023-10-23T12:21:38.968Z,3.47
2023-10-23T12:24:07.553Z,2.90
2023-10-23T12:26:35.431Z,3.03
2023-10-23T12:29:09.233Z,3.33
2023-10-23T12:32:00.317Z,3.05
2023-10-23T12:34:31.803Z,3.13
2023-10-23T12:36:59.923Z,3.10
2023-10-23T12:39:27.403Z,3.03
2023-10-23T12:41:54.620Z,3.00
2023-10-23T12:44:21.778Z,3.10
2023-10-23T12:46:51.667Z,2.90
2023-10-23T12:49:19.174Z,3.25
2023-10-23T12:51:46.589Z,3.42
2023-10-23T12:54:15.446Z,3.05
2023-10-23T12:56:42.699Z,3.13
2023-10-23T12:59:10.131Z,3.22
2023-10-23T13:01:37.440Z,2.88
2023-10-23T13:04:04.931Z,3.53
2023-10-23T13:06:33.845Z,3.05
2023-10-23T13:09:01.131Z,3.15
2023-10-23T13:11:31.507Z,3.30
2023-10-23T13:16:27.447Z,3.75
2023-10-23T13:18:54.503Z,3.03
2023-10-23T13:21:32.209Z,3.30
2023-10-23T13:24:01.694Z,3.05
2023-10-23T13:26:31.860Z,3.22
2023-10-23T13:28:59.203Z,3.30
2023-10-23T13:31:27.032Z,3.28
2023-10-23T13:33:54.340Z,3.22
2023-10-23T13:36:21.875Z,3.35
2023-10-23T13:38:49.858Z,3.05
2023-10-23T13:41:17.194Z,3.03
2023-10-23T13:43:44.751Z,2.95
2023-10-23T13:46:12.219Z,3.47
2023-10-23T13:48:39.108Z,3.10
2023-10-23T13:51:06.297Z,3.35
2023-10-23T13:53:34.320Z,3.65
2023-10-23T13:56:01.667Z,3.55
2023-10-23T13:58:29.049Z,3.33
2023-10-23T14:00:56.532Z,3.42
2023-10-23T14:03:26.058Z,4.15
2023-10-23T14:05:57.717Z,3.33
2023-10-23T14:09:18.572Z,3.53
2023-10-23T14:11:58.355Z,3.50
2023-10-23T14:14:04.127Z,3.42
2023-10-23T14:16:31.353Z,4.20
2023-10-23T14:18:58.609Z,3.92
2023-10-23T14:21:25.829Z,3.60
2023-10-23T14:23:53.055Z,3.88
2023-10-23T14:26:21.490Z,3.60
2023-10-23T14:28:48.632Z,5.38
2023-10-23T14:44:30.527Z,11.27
2023-10-23T14:47:01.645Z,10.50
2023-10-23T14:49:29.160Z,10.50
2023-10-23T14:51:56.586Z,9.93
2023-10-23T14:54:25.301Z,9.63
2023-10-23T14:56:53.330Z,9.68
2023-10-23T14:59:22.796Z,9.02
2023-10-23T15:01:50.704Z,10.10
2023-10-23T15:04:18.131Z,9.68
2023-10-23T15:06:45.358Z,8.75
2023-10-23T15:09:12.525Z,10.25
2023-10-23T15:11:39.716Z,9.90
2023-10-23T15:14:08.305Z,8.98
2023-10-23T15:16:36.905Z,10.18
2023-10-23T15:19:04.696Z,10.45
2023-10-23T15:21:31.937Z,10.52
2023-10-23T15:24:02.185Z,10.40
2023-10-23T15:26:29.388Z,10.35
2023-10-23T15:28:56.623Z,10.77
2023-10-23T15:31:23.938Z,10.38
2023-10-23T15:33:51.285Z,10.23
2023-10-23T15:36:18.803Z,10.70
2023-10-23T15:38:46.098Z,10.52
2023-10-23T15:41:17.109Z,9.18
2023-10-23T15:43:47.554Z,10.82
2023-10-23T15:46:15.988Z,10.27
2023-10-23T15:48:43.727Z,10.93
2023-10-23T15:51:11.051Z,11.70
2023-10-23T15:53:38.490Z,9.95
2023-10-23T15:56:06.203Z,11.18
2023-10-23T15:58:35.813Z,11.45
2023-10-23T16:01:07.786Z,11.00
2023-10-23T16:03:35.627Z,11.38
2023-10-23T16:06:04.609Z,11.88
2023-10-23T16:08:31.828Z,11.60
2023-10-23T16:10:59.013Z,11.30
2023-10-23T16:13:26.218Z,9.95
2023-10-23T16:15:59.194Z,11.70
2023-10-23T16:18:26.758Z,12.10
2023-10-23T16:20:56.289Z,14.07
2023-10-23T16:23:23.515Z,10.30
2023-10-23T16:25:50.661Z,11.82
2023-10-23T16:28:20.362Z,9.48
2023-10-23T16:30:47.690Z,10.93
2023-10-23T16:33:14.880Z,11.80
2023-10-23T16:35:43.654Z,8.00
2023-10-23T16:38:13.857Z,11.50
2023-10-23T16:40:41.097Z,10.93
2023-10-23T16:43:08.856Z,10.93
2023-10-23T16:45:36.118Z,12.55
2023-10-23T16:48:04.229Z,10.57
2023-10-23T16:50:31.680Z,10.77
2023-10-23T16:53:01.943Z,11.35
2023-10-23T16:55:29.357Z,10.68
2023-10-23T16:57:58.035Z,11.32
2023-10-23T17:00:25.310Z,11.93
2023-10-23T17:02:52.569Z,10.27
2023-10-23T17:05:19.821Z,9.63
2023-10-23T17:07:47.000Z,12.00
2023-10-23T17:10:14.388Z,9.88
2023-10-23T17:12:41.691Z,11.10
2023-10-23T17:15:09.425Z,12.45
2023-10-23T17:17:36.695Z,11.32
2023-10-23T17:20:04.026Z,10.63
2023-10-23T17:22:31.271Z,9.55
2023-10-23T17:24:58.540Z,10.13
2023-10-23T17:27:25.792Z,11.70
2023-10-23T17:29:52.966Z,13.73
2023-10-23T17:32:22.920Z,13.55
2023-10-23T17:34:50.104Z,11.35
2023-10-23T17:37:17.365Z,12.10
2023-10-23T17:39:44.636Z,12.30
2023-10-23T17:42:11.801Z,13.50
2023-10-23T17:44:38.948Z,11.10
2023-10-23T17:47:06.275Z,11.93
2023-10-23T17:49:33.599Z,11.95
2023-10-23T17:52:01.096Z,13.80
2023-10-23T17:54:28.382Z,12.23
2023-10-23T17:56:55.504Z,12.05
2023-10-23T17:59:22.729Z,13.27
2023-10-23T18:01:50.097Z,12.57
2023-10-23T18:04:17.403Z,11.70
2023-10-23T18:06:44.748Z,12.35
2023-10-23T18:09:11.948Z,14.02
2023-10-23T18:11:42.289Z,10.05
2023-10-23T18:14:10.108Z,12.25
2023-10-23T18:16:37.934Z,9.63
2023-10-23T18:19:06.509Z,12.15
2023-10-23T18:21:33.770Z,11.95
2023-10-23T18:24:00.968Z,8.57
2023-10-23T18:26:28.716Z,12.88
2023-10-23T18:28:58.845Z,12.40
2023-10-23T18:31:26.586Z,11.13
2023-10-23T18:33:53.945Z,12.27
2023-10-23T18:36:22.701Z,10.82
2023-10-23T18:38:49.937Z,9.93
2023-10-23T18:41:21.537Z,11.65
2023-10-23T18:43:51.336Z,12.60
2023-10-23T18:46:18.657Z,10.13
2023-10-23T18:48:45.952Z,11.25
2023-10-23T18:51:13.672Z,12.32
2023-10-23T18:53:41.551Z,12.80
2023-10-23T18:56:08.892Z,12.30
2023-10-23T18:58:36.820Z,10.35
2023-10-23T19:01:06.669Z,11.43
2023-10-23T19:03:34.242Z,11.05
2023-10-23T19:06:01.481Z,10.43
2023-10-23T19:08:32.520Z,12.48
2023-10-23T19:10:59.896Z,12.50
2023-10-23T19:13:27.165Z,12.02
2023-10-23T19:16:03.793Z,9.05
2023-10-23T19:18:31.645Z,11.60
2023-10-23T19:21:02.840Z,11.77
2023-10-23T19:23:30.252Z,10.43
2023-10-23T19:25:57.637Z,12.38
2023-10-23T19:28:25.853Z,11.13
2023-10-23T19:30:53.868Z,11.43
2023-10-23T19:33:21.204Z,11.38
2023-10-23T19:35:48.595Z,11.00
2023-10-23T19:38:17.199Z,11.20
2023-10-23T19:40:47.781Z,10.48
2023-10-23T19:43:16.252Z,10.82
2023-10-23T19:45:44.326Z,10.38
2023-10-23T19:48:13.125Z,10.77
2023-10-23T19:50:43.930Z,11.93
2023-10-23T19:53:13.732Z,11.25
2023-10-23T19:55:45.759Z,9.90
2023-10-23T19:58:14.684Z,11.70
2023-10-23T20:00:44.368Z,12.55
2023-10-23T20:03:11.688Z,11.07
2023-10-23T20:05:38.867Z,9.35
2023-10-23T20:08:07.068Z,11.32
2023-10-23T20:10:35.119Z,11.25
2023-10-23T20:13:05.391Z,9.93
2023-10-23T20:15:32.778Z,10.95
2023-10-23T20:18:00.276Z,10.65
2023-10-23T20:20:27.785Z,11.15
2023-10-23T20:22:55.128Z,11.02
2023-10-23T20:25:22.409Z,11.30
2023-10-23T20:27:49.969Z,11.10
2023-10-23T20:30:17.290Z,9.98
2023-10-23T20:32:44.882Z,11.45
2023-10-23T20:35:12.059Z,10.55
2023-10-23T20:37:40.380Z,11.25
2023-10-23T20:40:08.004Z,10.70
2023-10-23T20:42:37.050Z,10.20
2023-10-23T20:45:07.505Z,12.20
2023-10-23T20:47:35.775Z,11.55
2023-10-23T20:50:04.307Z,10.65
2023-10-23T20:52:32.917Z,11.05
2023-10-23T20:55:00.688Z,11.32
2023-10-23T20:57:27.873Z,11.05
2023-10-23T20:59:55.064Z,11.55
2023-10-23T21:02:22.398Z,10.80
2023-10-23T21:04:49.606Z,10.70
2023-10-23T21:07:18.300Z,11.05
2023-10-23T21:09:45.644Z,11.15
2023-10-23T21:12:13.099Z,11.27
2023-10-23T21:14:47.800Z,8.90
2023-10-23T21:17:15.757Z,9.48
2023-10-23T21:19:43.355Z,10.30
2023-10-23T21:22:11.447Z,10.48
2023-10-23T21:24:40.216Z,7.05
2023-10-23T21:27:08.109Z,9.48
2023-10-23T21:29:38.701Z,7.40
2023-10-23T21:37:03.091Z,8.43
2023-10-23T21:39:31.351Z,9.70
2023-10-23T21:41:58.742Z,9.20
2023-10-23T21:44:26.772Z,9.43
2023-10-23T21:46:54.234Z,8.18
2023-10-23T21:49:21.490Z,9.98
2023-10-23T21:51:49.033Z,8.57
2023-10-23T21:54:16.410Z,8.65
2023-10-23T21:57:19.439Z,8.45
2023-10-23T21:59:32.084Z,9.40
2023-10-23T22:02:00.894Z,8.93
2023-10-23T22:04:28.410Z,7.20
2023-10-23T22:06:56.093Z,8.60
2023-10-23T22:09:23.624Z,8.45
2023-10-23T22:11:51.152Z,9.48
2023-10-23T22:14:18.570Z,7.68
2023-10-23T22:16:45.962Z,9.15
2023-10-23T22:19:14.330Z,11.10
2023-10-23T22:21:41.582Z,9.80
2023-10-23T22:24:08.848Z,9.38
2023-10-23T22:26:36.142Z,7.63
2023-10-23T22:29:03.494Z,7.82
2023-10-23T22:31:30.840Z,9.43
2023-10-23T22:33:58.116Z,7.53
2023-10-23T22:36:28.367Z,9.13
2023-10-23T22:38:55.640Z,6.88
2023-10-23T22:41:22.915Z,7.35
2023-10-23T22:43:50.419Z,6.78
2023-10-23T22:46:17.681Z,9.00
2023-10-23T22:48:46.174Z,6.78
2023-10-23T22:51:13.535Z,8.80
2023-10-23T22:53:41.154Z,8.13
2023-10-23T22:56:12.703Z,8.68
2023-10-23T22:58:44.841Z,7.78
2023-10-23T23:01:13.411Z,8.60
2023-10-23T23:03:45.814Z,8.90
2023-10-23T23:06:13.598Z,7.65
2023-10-23T23:08:44.660Z,8.75
2023-10-23T23:13:53.898Z,7.45
2023-10-23T23:16:26.315Z,7.32
2023-10-23T23:18:55.241Z,7.63
2023-10-23T23:21:23.832Z,7.90
2023-10-23T23:23:51.369Z,8.27
2023-10-23T23:26:18.973Z,7.95
2023-10-23T23:28:46.228Z,7.50
2023-10-23T23:31:13.660Z,7.38
2023-10-23T23:33:40.951Z,8.18
2023-10-23T23:36:08.161Z,7.65
2023-10-23T23:38:35.305Z,7.57
2023-10-23T23:41:02.459Z,7.05
2023-10-23T23:43:29.850Z,8.20
2023-10-23T23:45:57.367Z,7.40
2023-10-23T23:48:24.792Z,8.18
2023-10-23T23:50:51.985Z,8.35
2023-10-23T23:53:19.116Z,7.15
2023-10-23T23:55:46.379Z,7.32
2023-10-23T23:58:13.627Z,6.18
